KFRR/FRR METAR and TAF weather

Enter ICAO airport designator
Station Type Date Time Source
KFRR METAR 2019/11/21 03:35 UTC NOAA

KFRR 210335Z AUTO 00000KT 10SM SCT041 04/00 A3023 RMK AO1


Station Type Date Time Source
KFRR Decoded METAR 2019/11/21 03:35 UTC NOAA

Station name not available
Nov 20, 2019 - 10:35 PM EST / 2019.11.21 0335 UTC
Wind: Calm:0
Visibility: 10 mile(s):0
Sky conditions: partly cloudy
Temperature: 39 F (4 C)
Dew Point: 32 F (0 C)
Relative Humidity: 75%
Pressure (altimeter): 30.23 in. Hg (1023 hPa)
ob: KFRR 210335Z AUTO 00000KT 10SM SCT041 04/00 A3023 RMK AO1
cycle: 3

Station Type Date Time Source
KFRR TAF UTC NOAA

Error!

Example: see airport list